createdAt,value
2023-05-06T00:02:39.392Z,15.90
2023-05-06T00:05:25.178Z,16.10
2023-05-06T00:08:12.486Z,16.20
2023-05-06T00:10:58.583Z,16.30
2023-05-06T00:13:44.228Z,16.30
2023-05-06T00:16:29.832Z,16.20
2023-05-06T00:19:15.561Z,16.30
2023-05-06T00:22:01.507Z,16.20
2023-05-06T00:24:48.940Z,16.10
2023-05-06T00:27:34.576Z,16.00
2023-05-06T00:30:20.220Z,15.70
2023-05-06T00:33:06.192Z,15.60
2023-05-06T00:35:52.784Z,15.80
2023-05-06T00:38:38.340Z,15.70
2023-05-06T00:41:25.365Z,15.70
2023-05-06T00:44:11.614Z,15.90
2023-05-06T00:46:58.801Z,15.90
2023-05-06T00:49:46.091Z,16.20
2023-05-06T00:52:32.053Z,16.30
2023-05-06T00:55:18.125Z,16.50
2023-05-06T00:58:05.746Z,16.50
2023-05-06T01:00:52.305Z,16.50
2023-05-06T01:03:38.377Z,16.60
2023-05-06T01:06:30.018Z,16.40
2023-05-06T01:09:23.940Z,16.50
2023-05-06T01:12:17.167Z,16.60
2023-05-06T01:15:11.176Z,16.50
2023-05-06T01:17:59.720Z,16.70
2023-05-06T01:20:49.783Z,16.40
2023-05-06T01:23:52.967Z,16.20
2023-05-06T01:26:38.720Z,15.80
2023-05-06T01:29:25.152Z,15.80
2023-05-06T01:32:28.543Z,15.80
2023-05-06T01:35:20.629Z,15.80
2023-05-06T01:38:14.829Z,15.50
2023-05-06T01:41:02.861Z,15.20
2023-05-06T01:43:53.008Z,15.20
2023-05-06T01:46:38.579Z,14.90
2023-05-06T01:49:26.239Z,14.70
2023-05-06T01:52:11.748Z,14.60
2023-05-06T01:54:58.239Z,14.80
2023-05-06T01:57:45.085Z,15.00
2023-05-06T02:00:30.851Z,15.10
2023-05-06T02:03:16.574Z,15.20
2023-05-06T02:06:02.388Z,15.20
2023-05-06T02:08:51.975Z,15.20
2023-05-06T02:11:41.805Z,15.10
2023-05-06T02:14:28.944Z,15.10
2023-05-06T02:17:15.735Z,15.00
2023-05-06T02:20:01.354Z,14.90
2023-05-06T02:22:46.877Z,14.90
2023-05-06T02:25:33.387Z,14.90
2023-05-06T02:28:19.140Z,14.80
2023-05-06T02:31:06.115Z,14.80
2023-05-06T02:33:51.987Z,14.70
2023-05-06T02:36:37.376Z,14.60
2023-05-06T02:39:23.025Z,14.70
2023-05-06T02:42:08.781Z,14.70
2023-05-06T02:44:54.383Z,14.70
2023-05-06T02:47:41.473Z,14.60
2023-05-06T02:50:27.203Z,14.50
2023-05-06T02:53:13.362Z,14.50
2023-05-06T02:55:59.181Z,14.60
2023-05-06T02:58:44.802Z,14.60
2023-05-06T03:01:31.068Z,14.50
2023-05-06T03:04:18.470Z,14.60
2023-05-06T03:07:04.050Z,14.60
2023-05-06T03:09:50.882Z,14.50
2023-05-06T03:12:36.590Z,14.40
2023-05-06T03:15:22.743Z,14.50
2023-05-06T03:18:08.572Z,14.30
2023-05-06T03:20:56.649Z,14.40
2023-05-06T03:23:42.294Z,14.40
2023-05-06T03:26:28.435Z,14.30
2023-05-06T03:29:14.996Z,14.30
2023-05-06T03:32:06.548Z,14.30
2023-05-06T03:34:59.088Z,14.30
2023-05-06T03:37:46.334Z,14.20
2023-05-06T03:40:32.751Z,14.20
2023-05-06T03:43:19.828Z,14.00
2023-05-06T03:46:09.087Z,14.10
2023-05-06T03:48:56.282Z,14.00
2023-05-06T03:51:42.374Z,14.00
2023-05-06T03:54:29.598Z,14.10
2023-05-06T03:57:15.803Z,14.30
2023-05-06T04:00:02.404Z,14.40
2023-05-06T04:02:50.428Z,14.30
2023-05-06T04:05:42.279Z,14.40
2023-05-06T04:08:30.933Z,14.30
2023-05-06T04:11:18.351Z,14.30
2023-05-06T04:14:05.731Z,14.30
2023-05-06T04:16:52.035Z,14.40
2023-05-06T04:19:38.079Z,14.40
2023-05-06T04:22:23.800Z,14.40
2023-05-06T04:25:12.165Z,14.50
2023-05-06T04:27:59.298Z,14.50
2023-05-06T04:30:45.990Z,14.50
2023-05-06T04:33:32.882Z,14.70
2023-05-06T04:36:21.864Z,14.80
2023-05-06T04:39:18.089Z,15.00
2023-05-06T04:42:04.939Z,15.20
2023-05-06T04:44:59.390Z,15.20
2023-05-06T04:47:49.075Z,15.30
2023-05-06T04:50:36.791Z,15.60
2023-05-06T04:53:22.185Z,15.80
2023-05-06T04:56:08.303Z,16.50
2023-05-06T04:58:55.587Z,17.30
2023-05-06T05:01:42.797Z,18.20
2023-05-06T05:04:29.910Z,18.70
2023-05-06T05:07:15.924Z,19.50
2023-05-06T05:10:01.419Z,20.30
2023-05-06T05:12:47.359Z,21.20
2023-05-06T05:15:33.427Z,22.10
2023-05-06T05:18:20.172Z,23.00
2023-05-06T05:21:08.206Z,23.80
2023-05-06T05:23:55.369Z,24.70
2023-05-06T05:26:41.347Z,25.70
2023-05-06T05:29:26.888Z,26.40
2023-05-06T05:32:13.172Z,27.00
2023-05-06T05:35:00.569Z,27.60
2023-05-06T05:37:46.946Z,27.90
2023-05-06T05:40:33.329Z,28.30
2023-05-06T05:43:21.333Z,29.00
2023-05-06T05:46:09.322Z,29.50
2023-05-06T05:48:56.409Z,28.50
2023-05-06T05:51:44.112Z,27.40
2023-05-06T05:54:32.261Z,26.30
2023-05-06T05:57:18.355Z,25.60
2023-05-06T06:00:05.854Z,25.10
2023-05-06T06:03:02.508Z,24.00
2023-05-06T06:05:49.517Z,23.10
2023-05-06T06:08:37.050Z,22.40
2023-05-06T06:11:25.319Z,22.10
2023-05-06T06:14:11.353Z,21.30
2023-05-06T06:16:56.896Z,21.10
2023-05-06T06:19:45.825Z,20.90
2023-05-06T06:22:31.535Z,20.90
2023-05-06T06:25:19.049Z,20.60
2023-05-06T06:28:05.158Z,20.60
2023-05-06T06:30:53.784Z,20.60
2023-05-06T06:33:39.486Z,20.70
2023-05-06T06:36:24.895Z,20.30
2023-05-06T06:39:10.603Z,20.50
2023-05-06T06:42:04.387Z,20.50
2023-05-06T06:44:56.110Z,20.50
2023-05-06T06:47:41.750Z,20.40
2023-05-06T06:50:27.382Z,19.90
2023-05-06T06:53:13.122Z,19.90
2023-05-06T06:55:58.703Z,20.10
2023-05-06T06:58:45.660Z,20.00
2023-05-06T07:01:31.460Z,20.20
2023-05-06T07:04:17.432Z,20.10
2023-05-06T07:07:03.062Z,20.00
2023-05-06T07:09:48.494Z,20.40
2023-05-06T07:12:34.373Z,20.60
2023-05-06T07:15:21.587Z,20.60
2023-05-06T07:18:07.416Z,20.60
2023-05-06T07:20:52.914Z,20.60
2023-05-06T07:23:38.576Z,21.40
2023-05-06T07:26:24.594Z,22.10
2023-05-06T07:29:10.671Z,22.90
2023-05-06T07:31:58.229Z,22.80
2023-05-06T07:34:45.819Z,23.10
2023-05-06T07:37:31.501Z,23.30
2023-05-06T07:40:17.344Z,23.70
2023-05-06T07:43:02.950Z,23.80
2023-05-06T07:45:49.004Z,23.80
2023-05-06T07:48:36.493Z,23.40
2023-05-06T07:51:27.647Z,23.70
2023-05-06T07:54:13.444Z,23.70
2023-05-06T07:56:58.954Z,23.90
2023-05-06T07:59:47.242Z,23.80
2023-05-06T08:02:33.364Z,24.00
2023-05-06T08:05:20.427Z,24.10
2023-05-06T08:08:06.407Z,24.20
2023-05-06T08:10:52.028Z,24.50
2023-05-06T08:13:37.658Z,24.80
2023-05-06T08:16:25.195Z,25.10
2023-05-06T08:19:12.201Z,25.00
2023-05-06T08:21:59.087Z,25.40
2023-05-06T08:24:44.826Z,25.70
2023-05-06T08:27:30.796Z,26.10
2023-05-06T08:30:16.522Z,25.60
2023-05-06T08:33:02.493Z,25.60
2023-05-06T08:35:49.528Z,25.90
2023-05-06T08:38:36.822Z,26.80
2023-05-06T08:41:24.490Z,27.60
2023-05-06T08:44:10.672Z,27.70
2023-05-06T08:46:56.420Z,27.80
2023-05-06T08:49:41.968Z,27.40
2023-05-06T08:52:28.647Z,27.80
2023-05-06T08:55:16.691Z,27.30
2023-05-06T08:58:03.356Z,27.90
2023-05-06T09:00:49.095Z,28.40
2023-05-06T09:03:34.731Z,29.20
2023-05-06T09:06:20.863Z,29.70
2023-05-06T09:09:07.005Z,30.80
2023-05-06T09:11:57.127Z,31.30
2023-05-06T09:14:43.194Z,31.80
2023-05-06T09:17:32.604Z,32.30
2023-05-06T09:20:18.677Z,32.80
2023-05-06T09:23:05.007Z,32.90
2023-05-06T09:25:51.160Z,32.10
2023-05-06T09:28:37.950Z,31.80
2023-05-06T09:31:24.081Z,30.70
2023-05-06T09:34:10.159Z,29.50
2023-05-06T09:36:57.637Z,29.20
2023-05-06T09:39:43.392Z,28.40
2023-05-06T09:42:29.992Z,29.00
2023-05-06T09:45:17.810Z,28.80
2023-05-06T09:48:03.944Z,29.50
2023-05-06T09:50:50.509Z,30.40
2023-05-06T09:53:39.606Z,30.70
2023-05-06T09:56:26.066Z,30.80
2023-05-06T09:59:13.254Z,31.30
2023-05-06T10:02:02.165Z,31.40
2023-05-06T10:04:49.773Z,31.50
2023-05-06T10:07:36.303Z,31.20
2023-05-06T10:10:25.362Z,31.70
2023-05-06T10:13:12.057Z,32.00
2023-05-06T10:16:01.607Z,31.00
2023-05-06T10:18:51.545Z,31.60
2023-05-06T10:21:42.369Z,32.40
2023-05-06T10:24:30.910Z,31.70
2023-05-06T10:27:18.774Z,32.20
2023-05-06T10:30:06.992Z,33.10
2023-05-06T10:32:55.045Z,33.00
2023-05-06T10:35:47.148Z,33.50
2023-05-06T10:38:37.410Z,34.10
2023-05-06T10:41:27.666Z,33.70
2023-05-06T10:44:14.074Z,33.90
2023-05-06T10:47:03.171Z,33.00
2023-05-06T10:50:20.108Z,32.40
2023-05-06T10:53:07.565Z,32.60
2023-05-06T10:56:08.861Z,32.50
2023-05-06T10:58:55.887Z,32.70
2023-05-06T11:01:43.013Z,33.70
2023-05-06T11:04:31.213Z,35.20
2023-05-06T11:07:23.073Z,36.00
2023-05-06T11:10:12.040Z,35.90
2023-05-06T11:12:57.906Z,35.10
2023-05-06T11:15:47.524Z,34.50
2023-05-06T11:18:43.553Z,34.50
2023-05-06T11:21:37.110Z,35.20
2023-05-06T11:24:27.845Z,34.30
2023-05-06T11:27:19.607Z,33.00
2023-05-06T11:30:06.797Z,33.90
2023-05-06T11:32:55.900Z,32.70
2023-05-06T11:35:41.818Z,31.80
2023-05-06T11:38:42.646Z,32.40
2023-05-06T11:41:28.892Z,33.10
2023-05-06T11:44:29.751Z,32.80
2023-05-06T11:47:15.950Z,32.80
2023-05-06T11:50:07.623Z,33.00
2023-05-06T11:52:53.561Z,32.50
2023-05-06T11:55:39.136Z,32.30
2023-05-06T11:58:26.397Z,31.80
2023-05-06T12:01:13.760Z,32.40
2023-05-06T12:03:59.757Z,31.90
2023-05-06T12:06:46.603Z,32.50
2023-05-06T12:09:34.392Z,32.60
2023-05-06T12:12:23.212Z,32.80
2023-05-06T12:15:10.780Z,33.60
2023-05-06T12:17:57.878Z,34.40
2023-05-06T12:20:43.457Z,35.70
2023-05-06T12:26:14.758Z,35.10
2023-05-06T12:29:07.019Z,35.00
2023-05-06T12:32:08.372Z,35.40
2023-05-06T12:34:56.506Z,34.50
2023-05-06T12:37:42.154Z,35.20
2023-05-06T12:40:28.847Z,35.70
2023-05-06T12:43:14.729Z,35.70
2023-05-06T12:46:04.634Z,35.80
2023-05-06T12:48:57.681Z,35.30
2023-05-06T12:51:47.111Z,34.50
2023-05-06T12:54:33.535Z,33.10
2023-05-06T12:57:19.309Z,32.30
2023-05-06T13:00:07.430Z,32.00
2023-05-06T13:02:53.592Z,31.80
2023-05-06T13:05:39.560Z,32.20
2023-05-06T13:08:28.497Z,32.60
2023-05-06T13:11:14.271Z,32.40
2023-05-06T13:14:00.062Z,32.00
2023-05-06T13:16:46.544Z,31.20
2023-05-06T13:19:33.434Z,30.90
2023-05-06T13:22:20.154Z,30.70
2023-05-06T13:25:07.971Z,31.40
2023-05-06T13:27:53.695Z,31.60
2023-05-06T13:30:39.539Z,31.70
2023-05-06T13:33:25.630Z,32.40
2023-05-06T13:36:11.467Z,32.80
2023-05-06T13:38:57.514Z,33.30
2023-05-06T13:41:46.356Z,32.00
2023-05-06T13:44:33.028Z,31.50
2023-05-06T13:47:18.800Z,31.10
2023-05-06T13:50:05.863Z,31.10
2023-05-06T13:52:51.908Z,30.70
2023-05-06T13:55:37.394Z,30.40
2023-05-06T13:58:24.269Z,30.60
2023-05-06T14:01:09.836Z,30.30
2023-05-06T14:03:55.486Z,29.80
2023-05-06T14:06:41.465Z,29.20
2023-05-06T14:09:27.316Z,28.50
2023-05-06T14:12:13.075Z,28.30
2023-05-06T14:15:00.130Z,28.30
2023-05-06T14:17:49.741Z,27.90
2023-05-06T14:20:35.574Z,27.90
2023-05-06T14:23:21.098Z,27.80
2023-05-06T14:26:06.712Z,28.30
2023-05-06T14:28:52.509Z,28.40
2023-05-06T14:31:39.486Z,28.20
2023-05-06T14:34:26.697Z,27.90
2023-05-06T14:37:12.626Z,28.10
2023-05-06T14:39:58.281Z,28.10
2023-05-06T14:42:45.419Z,28.20
2023-05-06T14:45:31.385Z,28.70
2023-05-06T14:48:18.525Z,28.80
2023-05-06T14:51:05.042Z,28.80
2023-05-06T14:53:51.035Z,28.90
2023-05-06T14:56:36.682Z,28.60
2023-05-06T14:59:22.665Z,28.20
2023-05-06T15:02:09.796Z,28.20
2023-05-06T15:04:57.174Z,28.00
2023-05-06T15:07:43.033Z,28.70
2023-05-06T15:10:28.590Z,29.10
2023-05-06T15:13:14.441Z,29.40
2023-05-06T15:16:00.230Z,29.20
2023-05-06T15:18:45.972Z,28.80
2023-05-06T15:21:33.161Z,29.10
2023-05-06T15:24:18.996Z,29.40
2023-05-06T15:27:05.128Z,29.80
2023-05-06T15:29:51.480Z,29.70
2023-05-06T15:32:37.076Z,29.80
2023-05-06T15:35:22.862Z,29.70
2023-05-06T15:38:10.931Z,29.20
2023-05-06T15:40:56.831Z,29.40
2023-05-06T15:43:42.547Z,29.00
2023-05-06T15:46:29.161Z,29.30
2023-05-06T15:49:45.537Z,29.50
2023-05-06T15:52:21.187Z,29.00
2023-05-06T15:55:09.942Z,28.80
2023-05-06T15:57:56.532Z,28.30
2023-05-06T16:00:43.554Z,28.40
2023-05-06T16:03:29.308Z,28.20
2023-05-06T16:06:15.827Z,28.30
2023-05-06T16:09:01.870Z,28.70
2023-05-06T16:11:49.423Z,28.80
2023-05-06T16:14:35.097Z,28.90
2023-05-06T16:17:20.909Z,28.80
2023-05-06T16:20:10.445Z,28.60
2023-05-06T16:22:56.136Z,28.60
2023-05-06T16:25:42.370Z,28.20
2023-05-06T16:28:30.033Z,28.30
2023-05-06T16:31:15.517Z,28.40
2023-05-06T16:34:01.355Z,28.40
2023-05-06T16:36:47.505Z,28.50
2023-05-06T16:39:33.508Z,28.30
2023-05-06T16:42:19.369Z,28.20
2023-05-06T16:45:07.892Z,28.00
2023-05-06T16:47:53.355Z,28.00
2023-05-06T16:50:39.052Z,27.70
2023-05-06T16:53:27.720Z,27.40
2023-05-06T16:56:13.562Z,27.30
2023-05-06T16:58:59.495Z,27.10
2023-05-06T17:01:46.810Z,27.20
2023-05-06T17:04:32.694Z,27.20
2023-05-06T17:07:18.274Z,26.80
2023-05-06T17:10:04.595Z,26.90
2023-05-06T17:12:50.098Z,27.00
2023-05-06T17:15:36.160Z,27.00
2023-05-06T17:18:24.512Z,27.00
2023-05-06T17:21:10.709Z,26.90
2023-05-06T17:23:56.741Z,26.80
2023-05-06T17:26:42.546Z,26.80
2023-05-06T17:29:28.660Z,26.70
2023-05-06T17:32:17.356Z,26.60
2023-05-06T17:35:04.697Z,26.20
2023-05-06T17:37:50.178Z,25.20
2023-05-06T17:40:36.342Z,24.20
2023-05-06T17:43:22.245Z,23.20
2023-05-06T17:46:09.477Z,22.50
2023-05-06T17:48:55.569Z,21.80
2023-05-06T17:51:45.236Z,21.20
2023-05-06T17:54:35.093Z,20.90
2023-05-06T17:57:21.957Z,20.00
2023-05-06T18:00:09.059Z,19.80
2023-05-06T18:03:01.311Z,19.50
2023-05-06T18:05:47.126Z,19.20
2023-05-06T18:08:34.459Z,19.10
2023-05-06T18:11:20.757Z,19.00
2023-05-06T18:14:06.868Z,18.80
2023-05-06T18:16:52.697Z,18.90
2023-05-06T18:19:38.783Z,18.70
2023-05-06T18:22:24.743Z,18.90
2023-05-06T18:25:12.366Z,19.10
2023-05-06T18:27:58.530Z,19.00
2023-05-06T18:30:44.425Z,19.20
2023-05-06T18:33:30.068Z,19.20
2023-05-06T18:36:16.034Z,19.20
2023-05-06T18:39:01.968Z,19.30
2023-05-06T18:41:49.197Z,19.40
2023-05-06T18:44:34.962Z,19.40
2023-05-06T18:47:20.961Z,19.40
2023-05-06T18:50:08.546Z,19.40
2023-05-06T18:52:55.845Z,19.50
2023-05-06T18:55:41.844Z,19.30
2023-05-06T18:58:29.493Z,19.40
2023-05-06T19:01:15.957Z,19.40
2023-05-06T19:04:02.137Z,19.40
2023-05-06T19:06:48.287Z,19.50
2023-05-06T19:09:36.947Z,19.80
2023-05-06T19:12:23.272Z,19.70
2023-05-06T19:15:12.620Z,19.90
2023-05-06T19:17:58.869Z,20.00
2023-05-06T19:20:44.858Z,20.00
2023-05-06T19:23:31.721Z,19.90
2023-05-06T19:26:17.463Z,20.00
2023-05-06T19:29:03.395Z,20.10
2023-05-06T19:31:50.834Z,20.10
2023-05-06T19:34:36.603Z,20.10
2023-05-06T19:37:22.164Z,20.10
2023-05-06T19:40:09.169Z,20.20
2023-05-06T19:42:54.898Z,20.20
2023-05-06T19:45:41.775Z,20.20
2023-05-06T19:48:28.968Z,20.10
2023-05-06T19:51:14.282Z,20.10
2023-05-06T19:53:59.848Z,20.20
2023-05-06T19:56:45.500Z,20.30
2023-05-06T19:59:31.118Z,20.30
2023-05-06T20:02:16.753Z,20.20
2023-05-06T20:05:03.872Z,20.20
2023-05-06T20:07:49.967Z,20.10
2023-05-06T20:10:35.511Z,20.10
2023-05-06T20:13:21.428Z,20.20
2023-05-06T20:16:07.586Z,20.20
2023-05-06T20:18:53.462Z,20.20
2023-05-06T20:21:40.391Z,20.20
2023-05-06T20:24:29.241Z,20.20
2023-05-06T20:27:15.076Z,20.10
2023-05-06T20:30:00.833Z,20.10
2023-05-06T20:32:46.773Z,20.10
2023-05-06T20:35:37.951Z,19.90
2023-05-06T20:38:26.954Z,19.90
2023-05-06T20:41:12.515Z,19.90
2023-05-06T20:43:58.399Z,20.10
2023-05-06T20:46:44.595Z,20.20
2023-05-06T20:49:30.635Z,20.20
2023-05-06T20:52:16.423Z,20.20
2023-05-06T20:55:05.717Z,20.30
2023-05-06T20:57:51.476Z,20.30
2023-05-06T21:00:37.089Z,20.30
2023-05-06T21:03:24.002Z,20.40
2023-05-06T21:06:09.876Z,20.40
2023-05-06T21:08:55.704Z,20.30
2023-05-06T21:11:42.523Z,20.30
2023-05-06T21:14:28.266Z,20.30
2023-05-06T21:17:13.996Z,20.20
2023-05-06T21:19:59.833Z,20.30
2023-05-06T21:22:45.833Z,20.20
2023-05-06T21:25:31.744Z,20.10
2023-05-06T21:28:19.011Z,19.90
2023-05-06T21:31:05.170Z,19.60
2023-05-06T21:33:54.887Z,19.60
2023-05-06T21:36:41.004Z,19.40
2023-05-06T21:39:26.920Z,19.30
2023-05-06T21:42:12.966Z,19.40
2023-05-06T21:44:59.722Z,19.40
2023-05-06T21:47:45.975Z,19.40
2023-05-06T21:50:31.735Z,19.30
2023-05-06T21:53:17.254Z,19.20
2023-05-06T21:56:03.052Z,19.10
2023-05-06T21:58:48.875Z,19.00
2023-05-06T22:01:36.298Z,19.10
2023-05-06T22:04:21.887Z,19.30
2023-05-06T22:07:07.556Z,19.20
2023-05-06T22:09:53.232Z,19.20
2023-05-06T22:12:39.382Z,18.90
2023-05-06T22:15:25.088Z,18.90
2023-05-06T22:18:13.789Z,19.00
2023-05-06T22:20:59.674Z,18.80
2023-05-06T22:23:45.759Z,18.60
2023-05-06T22:26:32.940Z,18.60
2023-05-06T22:29:18.942Z,18.50
2023-05-06T22:32:05.239Z,18.70
2023-05-06T22:34:52.514Z,18.80
2023-05-06T22:37:38.171Z,18.80
2023-05-06T22:40:24.171Z,18.60
2023-05-06T22:43:10.052Z,18.60
2023-05-06T22:45:56.011Z,18.70
2023-05-06T22:48:44.622Z,18.80
2023-05-06T22:51:33.262Z,18.90
2023-05-06T22:54:18.805Z,18.70
2023-05-06T22:57:04.390Z,18.90
2023-05-06T22:59:50.078Z,18.90
2023-05-06T23:02:36.079Z,19.10
2023-05-06T23:05:22.045Z,19.20
2023-05-06T23:08:09.214Z,19.00
2023-05-06T23:10:55.040Z,18.90
2023-05-06T23:13:40.592Z,18.80
2023-05-06T23:16:26.311Z,19.00
2023-05-06T23:19:12.227Z,18.80
2023-05-06T23:21:57.834Z,18.70
2023-05-06T23:24:45.900Z,18.60
2023-05-06T23:27:31.635Z,18.50
2023-05-06T23:30:17.517Z,18.60
2023-05-06T23:33:03.824Z,18.80
2023-05-06T23:35:49.758Z,19.10
2023-05-06T23:38:35.657Z,19.00
2023-05-06T23:41:23.558Z,19.10
2023-05-06T23:44:09.549Z,19.20
2023-05-06T23:46:55.437Z,19.20
2023-05-06T23:49:41.526Z,19.10
2023-05-06T23:52:27.263Z,18.90
2023-05-06T23:55:13.316Z,18.90
2023-05-06T23:58:00.996Z,18.80
